createdAt,value
2019-03-16T00:01:57.318Z,0.70
2019-03-16T00:04:25.786Z,0.80
2019-03-16T00:06:54.185Z,0.70
2019-03-16T00:09:22.602Z,0.63
2019-03-16T00:11:51.128Z,0.60
2019-03-16T00:14:19.678Z,0.70
2019-03-16T00:16:48.083Z,0.67
2019-03-16T00:19:16.504Z,0.80
2019-03-16T00:21:44.905Z,0.70
2019-03-16T00:24:13.319Z,0.90
2019-03-16T00:26:41.723Z,0.80
2019-03-16T00:29:10.131Z,0.70
2019-03-16T00:31:38.530Z,1.00
2019-03-16T00:34:06.941Z,1.10
2019-03-16T00:36:35.345Z,1.40
2019-03-16T00:39:05.517Z,1.17
2019-03-16T00:41:33.918Z,1.07
2019-03-16T00:44:02.318Z,2.47
2019-03-16T00:46:30.721Z,2.83
2019-03-16T00:48:59.136Z,1.40
2019-03-16T00:51:27.542Z,1.13
2019-03-16T00:53:55.940Z,1.10
2019-03-16T00:56:24.342Z,0.80
2019-03-16T00:58:52.741Z,1.03
2019-03-16T01:01:21.151Z,0.80
2019-03-16T01:03:49.544Z,0.90
2019-03-16T01:06:17.950Z,1.00
2019-03-16T01:08:46.355Z,1.50
2019-03-16T01:11:14.760Z,1.40
2019-03-16T01:13:43.148Z,1.13
2019-03-16T01:16:11.618Z,1.30
2019-03-16T01:18:40.023Z,1.30
2019-03-16T01:21:08.437Z,1.90
2019-03-16T01:23:36.841Z,1.50
2019-03-16T01:26:05.627Z,1.53
2019-03-16T01:28:34.026Z,1.50
2019-03-16T01:31:02.427Z,1.80
2019-03-16T01:33:30.827Z,1.60
2019-03-16T01:35:59.234Z,1.53
2019-03-16T01:38:27.901Z,1.80
2019-03-16T01:40:56.315Z,1.90
2019-03-16T01:43:24.718Z,2.27
2019-03-16T01:45:53.126Z,1.87
2019-03-16T01:48:21.530Z,1.80
2019-03-16T01:50:49.940Z,1.73
2019-03-16T01:53:18.710Z,1.53
2019-03-16T01:55:47.193Z,1.47
2019-03-16T01:58:15.591Z,2.10
2019-03-16T02:00:44.009Z,1.50
2019-03-16T02:03:12.405Z,1.40
2019-03-16T02:05:40.817Z,1.50
2019-03-16T02:08:09.222Z,1.70
2019-03-16T02:10:37.640Z,1.57
2019-03-16T02:13:06.205Z,1.57
2019-03-16T02:15:34.618Z,1.70
2019-03-16T02:18:03.016Z,1.80
2019-03-16T02:20:31.425Z,2.50
2019-03-16T02:22:59.827Z,1.83
2019-03-16T02:25:28.241Z,1.97
2019-03-16T02:27:56.641Z,1.90
2019-03-16T02:30:25.050Z,1.87
2019-03-16T02:32:53.440Z,1.80
2019-03-16T02:35:21.860Z,1.87
2019-03-16T02:37:50.269Z,1.90
2019-03-16T02:40:18.693Z,2.40
2019-03-16T02:42:47.160Z,2.20
2019-03-16T02:45:15.575Z,2.13
2019-03-16T02:47:43.982Z,2.40
2019-03-16T02:50:13.356Z,2.00
2019-03-16T02:52:41.753Z,2.50
2019-03-16T02:55:10.540Z,2.17
2019-03-16T02:57:44.976Z,2.07
2019-03-16T03:00:13.930Z,1.83
2019-03-16T03:02:42.400Z,1.90
2019-03-16T03:05:11.224Z,2.00
2019-03-16T03:07:39.629Z,2.00
2019-03-16T03:10:10.471Z,2.30
2019-03-16T03:12:38.869Z,2.10
2019-03-16T03:15:08.716Z,2.40
2019-03-16T03:17:37.123Z,2.20
2019-03-16T03:20:09.898Z,2.00
2019-03-16T03:22:38.390Z,2.10
2019-03-16T03:25:06.858Z,2.30
2019-03-16T03:27:35.261Z,2.10
2019-03-16T03:30:05.449Z,2.43
2019-03-16T03:32:33.904Z,1.87
2019-03-16T03:35:02.308Z,2.60
2019-03-16T03:37:30.786Z,2.03
2019-03-16T03:39:59.188Z,1.80
2019-03-16T03:42:27.668Z,1.93
2019-03-16T03:44:56.062Z,2.33
2019-03-16T03:47:24.467Z,2.70
2019-03-16T03:49:52.875Z,2.37
2019-03-16T03:52:21.275Z,2.20
2019-03-16T03:54:49.746Z,2.40
2019-03-16T03:57:18.153Z,2.57
2019-03-16T03:59:46.628Z,2.50
2019-03-16T04:02:15.130Z,2.43
2019-03-16T04:04:43.829Z,2.70
2019-03-16T04:07:12.246Z,2.73
2019-03-16T04:09:40.647Z,2.40
2019-03-16T04:12:09.375Z,2.40
2019-03-16T04:14:37.775Z,2.50
2019-03-16T04:17:06.194Z,2.57
2019-03-16T04:19:34.598Z,3.30
2019-03-16T04:22:03.014Z,2.83
2019-03-16T04:24:31.417Z,3.10
2019-03-16T04:27:14.644Z,2.73
2019-03-16T04:29:29.941Z,2.73
2019-03-16T04:31:58.355Z,3.00
2019-03-16T04:34:29.647Z,2.80
2019-03-16T04:36:56.922Z,2.40
2019-03-16T04:39:25.383Z,2.80
2019-03-16T04:41:53.788Z,2.97
2019-03-16T04:44:22.187Z,3.03
2019-03-16T04:46:50.590Z,3.10
2019-03-16T04:49:18.985Z,2.70
2019-03-16T04:51:47.416Z,3.07
2019-03-16T04:54:15.801Z,2.80
2019-03-16T04:56:44.213Z,2.70
2019-03-16T04:59:12.606Z,3.53
2019-03-16T05:01:41.015Z,2.93
2019-03-16T05:04:09.415Z,3.20
2019-03-16T05:06:37.829Z,3.50
2019-03-16T05:09:07.075Z,3.40
2019-03-16T05:11:35.491Z,2.80
2019-03-16T05:14:04.066Z,2.90
2019-03-16T05:16:32.467Z,3.53
2019-03-16T05:19:00.873Z,2.93
2019-03-16T05:21:29.282Z,3.00
2019-03-16T05:23:57.694Z,3.10
2019-03-16T05:26:26.178Z,3.80
2019-03-16T05:28:54.592Z,4.00
2019-03-16T05:31:23.069Z,3.77
2019-03-16T05:33:51.475Z,4.60
2019-03-16T05:36:19.885Z,4.40
2019-03-16T05:38:48.285Z,4.40
2019-03-16T05:41:16.676Z,4.30
2019-03-16T05:43:45.081Z,3.97
2019-03-16T05:46:13.482Z,4.17
2019-03-16T05:48:41.915Z,4.43
2019-03-16T05:51:10.356Z,4.57
2019-03-16T05:53:38.775Z,4.23
2019-03-16T05:56:07.188Z,4.20
2019-03-16T05:58:35.590Z,3.97
2019-03-16T06:01:04.363Z,3.43
2019-03-16T06:03:32.771Z,3.40
2019-03-16T06:06:01.175Z,3.43
2019-03-16T06:08:29.637Z,3.20
2019-03-16T06:10:58.969Z,3.33
2019-03-16T06:13:27.376Z,2.80
2019-03-16T06:15:55.777Z,3.77
2019-03-16T06:18:24.190Z,3.30
2019-03-16T06:20:52.590Z,3.80
2019-03-16T06:23:21.007Z,4.13
2019-03-16T06:25:49.431Z,4.20
2019-03-16T06:28:17.897Z,4.07
2019-03-16T06:30:46.303Z,4.07
2019-03-16T06:33:14.768Z,3.77
2019-03-16T06:35:43.179Z,3.00
2019-03-16T06:38:11.591Z,3.20
2019-03-16T06:40:40.010Z,2.87
2019-03-16T06:43:08.428Z,2.50
2019-03-16T06:45:36.822Z,2.80
2019-03-16T06:48:05.263Z,3.83
2019-03-16T06:50:33.667Z,3.73
2019-03-16T06:53:02.087Z,5.30
2019-03-16T06:55:30.490Z,5.63
2019-03-16T06:57:58.917Z,4.90
2019-03-16T07:00:27.459Z,5.93
2019-03-16T07:02:55.887Z,6.30
2019-03-16T07:05:37.290Z,5.20
2019-03-16T07:07:54.513Z,5.70
2019-03-16T07:10:22.927Z,4.70
2019-03-16T07:12:51.356Z,4.20
2019-03-16T07:15:19.754Z,4.37
2019-03-16T07:17:48.170Z,4.63
2019-03-16T07:20:16.736Z,4.90
2019-03-16T07:22:45.160Z,5.07
2019-03-16T07:25:13.571Z,3.67
2019-03-16T07:27:41.971Z,3.57
2019-03-16T07:30:16.295Z,2.97
2019-03-16T07:32:44.746Z,3.43
2019-03-16T07:35:13.136Z,2.80
2019-03-16T07:37:41.539Z,2.67
2019-03-16T07:40:11.698Z,3.03
2019-03-16T07:42:40.219Z,2.73
2019-03-16T07:45:10.580Z,2.40
2019-03-16T07:47:38.983Z,2.63
2019-03-16T07:50:10.215Z,3.40
2019-03-16T07:52:38.609Z,3.30
2019-03-16T07:55:07.865Z,3.37
2019-03-16T07:57:40.529Z,3.47
2019-03-16T08:00:11.024Z,3.30
2019-03-16T08:02:39.424Z,2.60
2019-03-16T08:05:18.033Z,2.33
2019-03-16T08:07:37.972Z,2.80
2019-03-16T08:10:09.390Z,2.83
2019-03-16T08:12:37.795Z,2.73
2019-03-16T08:15:08.037Z,2.77
2019-03-16T08:17:36.434Z,2.47
2019-03-16T08:20:07.038Z,3.03
2019-03-16T08:22:35.456Z,3.47
2019-03-16T08:25:04.196Z,3.40
2019-03-16T08:27:32.593Z,3.67
2019-03-16T08:30:01.399Z,4.00
2019-03-16T08:32:29.867Z,4.97
2019-03-16T08:35:00.463Z,5.47
2019-03-16T08:37:29.805Z,5.87
2019-03-16T08:39:58.436Z,7.00
2019-03-16T08:42:26.850Z,6.57
2019-03-16T08:44:55.263Z,6.47
2019-03-16T08:47:23.672Z,5.80
2019-03-16T08:49:52.133Z,6.93
2019-03-16T08:52:20.587Z,7.30
2019-03-16T08:54:48.999Z,7.17
2019-03-16T08:57:17.410Z,6.90
2019-03-16T08:59:45.817Z,7.90
2019-03-16T09:02:14.217Z,8.27
2019-03-16T09:04:42.615Z,6.83
2019-03-16T09:07:11.024Z,7.60
2019-03-16T09:09:39.430Z,7.60
2019-03-16T09:12:07.832Z,5.90
2019-03-16T09:14:36.255Z,5.63
2019-03-16T09:17:04.724Z,5.37
2019-03-16T09:19:33.125Z,4.97
2019-03-16T09:22:01.526Z,4.07
2019-03-16T09:24:29.937Z,3.63
2019-03-16T09:26:58.649Z,3.70
2019-03-16T09:29:27.076Z,3.43
2019-03-16T09:31:55.474Z,3.60
2019-03-16T09:34:23.886Z,3.20
2019-03-16T09:36:52.299Z,4.10
2019-03-16T09:39:20.723Z,3.37
2019-03-16T09:41:49.110Z,3.37
2019-03-16T09:44:17.524Z,3.10
2019-03-16T09:46:45.926Z,3.20
2019-03-16T09:49:14.338Z,3.67
2019-03-16T09:51:42.959Z,3.20
2019-03-16T09:54:11.366Z,3.80
2019-03-16T09:56:39.770Z,4.07
2019-03-16T09:59:08.182Z,4.20
2019-03-16T10:01:36.595Z,3.43
2019-03-16T10:04:05.002Z,3.27
2019-03-16T10:06:33.418Z,3.73
2019-03-16T10:09:01.833Z,3.43
2019-03-16T10:11:30.241Z,3.33
2019-03-16T10:13:58.722Z,3.07
2019-03-16T10:16:27.155Z,3.43
2019-03-16T10:18:55.605Z,3.33
2019-03-16T10:21:24.023Z,3.23
2019-03-16T10:23:52.429Z,3.20
2019-03-16T10:26:20.837Z,3.33
2019-03-16T10:28:49.307Z,3.67
2019-03-16T10:31:17.722Z,3.60
2019-03-16T10:33:46.117Z,3.13
2019-03-16T10:36:14.534Z,3.30
2019-03-16T10:38:42.938Z,3.57
2019-03-16T10:41:11.350Z,3.30
2019-03-16T10:43:39.753Z,3.20
2019-03-16T10:46:08.589Z,3.50
2019-03-16T10:48:37.155Z,3.20
2019-03-16T10:51:05.567Z,3.50
2019-03-16T10:53:33.971Z,3.70
2019-03-16T10:56:02.394Z,2.90
2019-03-16T10:58:30.827Z,3.67
2019-03-16T11:00:59.223Z,3.40
2019-03-16T11:03:27.639Z,3.10
2019-03-16T11:05:56.057Z,3.30
2019-03-16T11:08:24.464Z,2.97
2019-03-16T11:10:52.873Z,2.90
2019-03-16T11:13:21.283Z,2.50
2019-03-16T11:15:49.698Z,2.60
2019-03-16T11:18:18.096Z,2.57
2019-03-16T11:20:46.509Z,3.10
2019-03-16T11:23:14.917Z,2.97
2019-03-16T11:25:43.329Z,2.80
2019-03-16T11:28:11.735Z,2.53
2019-03-16T11:30:40.139Z,3.00
2019-03-16T11:33:08.547Z,2.97
2019-03-16T11:35:36.950Z,2.57
2019-03-16T11:38:05.350Z,2.83
2019-03-16T11:40:33.834Z,2.47
2019-03-16T11:43:02.244Z,2.30
2019-03-16T11:45:30.646Z,2.30
2019-03-16T11:47:59.051Z,2.23
2019-03-16T11:50:27.467Z,2.20
2019-03-16T11:52:55.873Z,2.20
2019-03-16T11:55:24.287Z,2.63
2019-03-16T11:57:52.699Z,2.50
2019-03-16T12:00:21.114Z,2.83
2019-03-16T12:02:49.516Z,2.90
2019-03-16T12:05:17.932Z,2.20
2019-03-16T12:07:46.622Z,1.80
2019-03-16T12:10:17.706Z,2.00
2019-03-16T12:12:46.111Z,1.70
2019-03-16T12:15:15.053Z,1.67
2019-03-16T12:17:43.455Z,1.60
2019-03-16T12:20:13.494Z,1.30
2019-03-16T12:22:41.905Z,1.70
2019-03-16T12:25:10.446Z,1.80
2019-03-16T12:27:38.850Z,1.73
2019-03-16T12:30:15.773Z,1.93
2019-03-16T12:32:44.191Z,1.67
2019-03-16T12:35:12.662Z,1.73
2019-03-16T12:37:41.075Z,1.50
2019-03-16T12:40:12.555Z,1.30
2019-03-16T12:42:40.968Z,1.40
2019-03-16T12:45:16.401Z,1.40
2019-03-16T12:47:44.810Z,1.60
2019-03-16T12:50:13.751Z,1.50
2019-03-16T12:52:42.233Z,1.20
2019-03-16T12:55:13.781Z,1.30
2019-03-16T12:57:42.200Z,1.57
2019-03-16T13:00:17.557Z,1.70
2019-03-16T13:02:46.060Z,1.20
2019-03-16T13:05:14.539Z,1.40
2019-03-16T13:07:43.029Z,1.17
2019-03-16T13:10:13.937Z,1.13
2019-03-16T13:12:42.422Z,1.60
2019-03-16T13:15:10.831Z,1.30
2019-03-16T13:17:39.243Z,1.40
2019-03-16T13:20:10.564Z,1.40
2019-03-16T13:22:38.967Z,1.07
2019-03-16T13:25:09.682Z,1.40
2019-03-16T13:27:38.176Z,1.20
2019-03-16T13:30:09.666Z,1.20
2019-03-16T13:32:38.084Z,1.07
2019-03-16T13:35:07.744Z,1.13
2019-03-16T13:37:36.282Z,1.13
2019-03-16T13:40:07.782Z,1.10
2019-03-16T13:42:36.208Z,1.10
2019-03-16T13:45:06.853Z,1.00
2019-03-16T13:47:35.302Z,1.00
2019-03-16T13:50:06.354Z,1.20
2019-03-16T13:52:35.047Z,1.20
2019-03-16T13:55:04.306Z,1.30
2019-03-16T13:57:33.000Z,1.40
2019-03-16T14:00:11.268Z,1.10
2019-03-16T14:02:31.556Z,0.80
2019-03-16T14:04:59.958Z,0.90
2019-03-16T14:07:28.548Z,0.60
2019-03-16T14:09:56.955Z,0.53
2019-03-16T14:12:25.366Z,0.50
2019-03-16T14:14:54.391Z,0.50
2019-03-16T14:17:22.807Z,0.63
2019-03-16T14:19:51.236Z,0.60
2019-03-16T14:22:19.670Z,0.70
2019-03-16T14:24:48.146Z,0.50
2019-03-16T14:27:16.578Z,0.50
2019-03-16T14:29:45.410Z,0.50
2019-03-16T14:32:14.109Z,0.50
2019-03-16T14:34:42.890Z,0.50
2019-03-16T14:37:11.311Z,0.50
2019-03-16T14:39:39.721Z,0.60
2019-03-16T14:42:08.519Z,0.60
2019-03-16T14:44:36.926Z,0.60
2019-03-16T14:47:05.442Z,0.60
2019-03-16T14:49:33.841Z,0.60
2019-03-16T14:52:02.433Z,0.60
2019-03-16T14:54:30.851Z,0.60
2019-03-16T14:57:01.867Z,0.60
2019-03-16T14:59:29.432Z,1.80
2019-03-16T15:01:57.855Z,0.93
2019-03-16T15:04:26.258Z,0.60
2019-03-16T15:06:54.680Z,0.50
2019-03-16T15:09:23.086Z,0.43
2019-03-16T15:11:51.934Z,0.93
2019-03-16T15:14:21.856Z,0.50
2019-03-16T15:16:50.481Z,0.40
2019-03-16T15:19:18.882Z,0.40
2019-03-16T15:21:47.291Z,0.60
2019-03-16T15:24:15.693Z,0.50
2019-03-16T15:26:44.112Z,0.50
2019-03-16T15:29:12.554Z,0.30
2019-03-16T15:31:40.970Z,0.40
2019-03-16T15:34:09.385Z,0.60
2019-03-16T15:36:40.734Z,0.60
2019-03-16T15:39:07.986Z,0.57
2019-03-16T15:41:36.394Z,0.50
2019-03-16T15:44:04.818Z,0.60
2019-03-16T15:46:33.235Z,0.67
2019-03-16T15:49:01.658Z,0.47
2019-03-16T15:51:30.151Z,0.60
2019-03-16T15:53:58.561Z,0.47
2019-03-16T15:56:27.806Z,0.40
2019-03-16T15:58:56.462Z,0.40
2019-03-16T16:01:24.875Z,0.40
2019-03-16T16:03:53.306Z,0.50
2019-03-16T16:06:21.790Z,0.50
2019-03-16T16:08:50.219Z,0.40
2019-03-16T16:11:18.636Z,0.90
2019-03-16T16:13:47.140Z,0.50
2019-03-16T16:16:15.543Z,0.50
2019-03-16T16:18:43.966Z,0.60
2019-03-16T16:21:12.396Z,0.70
2019-03-16T16:23:40.810Z,0.57
2019-03-16T16:26:09.231Z,0.40
2019-03-16T16:28:37.655Z,0.50
2019-03-16T16:31:15.713Z,0.60
2019-03-16T16:33:36.233Z,0.60
2019-03-16T16:36:04.646Z,0.50
2019-03-16T16:38:33.071Z,0.50
2019-03-16T16:41:01.493Z,0.60
2019-03-16T16:43:29.904Z,0.60
2019-03-16T16:45:58.326Z,0.60
2019-03-16T16:48:26.748Z,0.60
2019-03-16T16:50:55.183Z,0.60
2019-03-16T16:53:23.646Z,0.60
2019-03-16T16:55:52.103Z,0.60
2019-03-16T16:58:20.532Z,0.70
2019-03-16T17:00:48.942Z,0.43
2019-03-16T17:03:17.366Z,0.70
2019-03-16T17:05:45.833Z,1.00
2019-03-16T17:08:14.306Z,0.70
2019-03-16T17:10:42.745Z,0.60
2019-03-16T17:13:11.149Z,0.53
2019-03-16T17:15:39.550Z,0.80
2019-03-16T17:18:07.972Z,0.70
2019-03-16T17:20:36.373Z,0.73
2019-03-16T17:23:04.878Z,0.70
2019-03-16T17:25:33.298Z,0.77
2019-03-16T17:28:01.711Z,0.97
2019-03-16T17:30:32.722Z,0.57
2019-03-16T17:33:01.144Z,0.80
2019-03-16T17:35:29.556Z,0.87
2019-03-16T17:37:58.053Z,0.90
2019-03-16T17:40:26.470Z,0.80
2019-03-16T17:42:54.882Z,1.00
2019-03-16T17:45:23.280Z,1.43
2019-03-16T17:47:51.691Z,1.67
2019-03-16T17:50:20.105Z,1.60
2019-03-16T17:52:48.515Z,1.20
2019-03-16T17:55:18.068Z,1.20
2019-03-16T17:57:46.544Z,1.20
2019-03-16T18:00:16.284Z,1.00
2019-03-16T18:02:51.430Z,1.10
2019-03-16T18:05:14.918Z,0.90
2019-03-16T18:07:43.332Z,1.67
2019-03-16T18:10:13.103Z,1.47
2019-03-16T18:12:41.505Z,0.90
2019-03-16T18:15:14.984Z,1.20
2019-03-16T18:17:43.383Z,0.90
2019-03-16T18:20:17.579Z,1.87
2019-03-16T18:22:47.179Z,1.27
2019-03-16T18:25:15.819Z,1.10
2019-03-16T18:27:44.241Z,1.30
2019-03-16T18:30:17.325Z,0.83
2019-03-16T18:32:45.735Z,1.63
2019-03-16T18:35:14.208Z,0.67
2019-03-16T18:37:42.702Z,1.10
2019-03-16T18:40:12.963Z,0.80
2019-03-16T18:42:41.383Z,0.70
2019-03-16T18:45:12.894Z,0.80
2019-03-16T18:47:41.367Z,0.80
2019-03-16T18:50:09.931Z,1.63
2019-03-16T18:52:38.343Z,1.20
2019-03-16T18:55:09.831Z,1.30
2019-03-16T18:57:38.244Z,1.47
2019-03-16T19:00:09.761Z,1.30
2019-03-16T19:02:38.165Z,1.30
2019-03-16T19:05:08.522Z,1.27
2019-03-16T19:07:36.927Z,1.77
2019-03-16T19:10:08.474Z,1.90
2019-03-16T19:12:36.874Z,2.07
2019-03-16T19:15:11.211Z,1.80
2019-03-16T19:17:39.684Z,1.80
2019-03-16T19:20:13.144Z,1.70
2019-03-16T19:22:41.540Z,1.60
2019-03-16T19:25:12.589Z,1.50
2019-03-16T19:27:41.100Z,1.50
2019-03-16T19:30:16.482Z,1.37
2019-03-16T19:32:44.968Z,1.37
2019-03-16T19:35:13.391Z,1.87
2019-03-16T19:37:41.824Z,1.70
2019-03-16T19:40:15.277Z,1.50
2019-03-16T19:42:46.559Z,1.83
2019-03-16T19:45:14.556Z,1.60
2019-03-16T19:47:43.045Z,1.50
2019-03-16T19:50:13.307Z,1.50
2019-03-16T19:52:41.738Z,1.90
2019-03-16T19:55:11.690Z,2.10
2019-03-16T19:57:40.095Z,2.10
2019-03-16T20:00:13.933Z,2.90
2019-03-16T20:02:50.341Z,4.33
2019-03-16T20:05:13.498Z,3.90
2019-03-16T20:07:41.937Z,4.03
2019-03-16T20:10:15.421Z,4.20
2019-03-16T20:12:43.831Z,3.90
2019-03-16T20:15:14.287Z,3.73
2019-03-16T20:17:42.772Z,3.67
2019-03-16T20:20:15.388Z,3.87
2019-03-16T20:22:43.790Z,3.63
2019-03-16T20:25:12.545Z,4.43
2019-03-16T20:27:40.949Z,3.93
2019-03-16T20:30:25.440Z,5.10
2019-03-16T20:32:50.269Z,11.03
2019-03-16T20:35:16.828Z,12.20
2019-03-16T20:37:45.238Z,9.07
2019-03-16T20:40:17.138Z,6.43
2019-03-16T20:42:45.619Z,4.40
2019-03-16T20:45:14.209Z,3.60
2019-03-16T20:47:42.797Z,3.80
2019-03-16T20:50:18.810Z,4.77
2019-03-16T20:52:47.237Z,6.37
2019-03-16T20:55:15.670Z,10.00
2019-03-16T20:57:44.143Z,10.20
2019-03-16T21:00:14.899Z,8.67
2019-03-16T21:02:43.391Z,8.87
2019-03-16T21:05:11.968Z,6.73
2019-03-16T21:07:40.443Z,6.73
2019-03-16T21:10:10.394Z,6.47
2019-03-16T21:12:38.800Z,5.77
2019-03-16T21:15:19.694Z,6.93
2019-03-16T21:17:48.108Z,7.97
2019-03-16T21:20:18.826Z,8.47
2019-03-16T21:22:47.316Z,31.10
2019-03-16T21:25:16.625Z,25.33
2019-03-16T21:27:45.052Z,8.97
2019-03-16T21:30:19.090Z,5.27
2019-03-16T21:32:47.503Z,10.57
2019-03-16T21:35:16.014Z,32.57
2019-03-16T21:37:44.501Z,20.80
2019-03-16T21:40:14.374Z,8.20
2019-03-16T21:42:42.826Z,4.70
2019-03-16T21:45:12.374Z,21.80
2019-03-16T21:47:40.886Z,7.10
2019-03-16T21:50:14.694Z,5.40
2019-03-16T21:52:44.809Z,10.27
2019-03-16T21:55:14.387Z,6.70
2019-03-16T21:57:42.914Z,5.20
2019-03-16T22:00:15.156Z,4.17
2019-03-16T22:02:43.583Z,3.70
2019-03-16T22:05:12.052Z,3.93
2019-03-16T22:07:40.539Z,3.73
2019-03-16T22:10:11.777Z,4.37
2019-03-16T22:12:40.425Z,3.97
2019-03-16T22:15:16.528Z,3.70
2019-03-16T22:17:45.270Z,3.80
2019-03-16T22:20:18.896Z,4.00
2019-03-16T22:22:47.385Z,3.70
2019-03-16T22:25:15.841Z,3.90
2019-03-16T22:27:44.330Z,4.10
2019-03-16T22:30:14.357Z,5.33
2019-03-16T22:32:42.777Z,5.77
2019-03-16T22:35:11.179Z,4.93
2019-03-16T22:37:39.588Z,5.70
2019-03-16T22:40:10.318Z,5.57
2019-03-16T22:42:38.736Z,6.40
2019-03-16T22:45:14.516Z,6.30
2019-03-16T22:47:43.012Z,7.97
2019-03-16T22:50:16.626Z,8.90
2019-03-16T22:52:45.055Z,8.40
2019-03-16T22:55:16.003Z,7.97
2019-03-16T22:57:43.993Z,5.67
2019-03-16T23:00:15.653Z,5.70
2019-03-16T23:02:44.128Z,5.90
2019-03-16T23:05:12.673Z,6.53
2019-03-16T23:07:41.078Z,6.23
2019-03-16T23:10:10.744Z,6.27
2019-03-16T23:12:39.219Z,6.40
2019-03-16T23:15:11.891Z,6.30
2019-03-16T23:17:40.308Z,6.07
2019-03-16T23:20:09.741Z,6.00
2019-03-16T23:22:38.154Z,5.97
2019-03-16T23:25:08.771Z,6.47
2019-03-16T23:27:37.187Z,6.90
2019-03-16T23:30:07.632Z,6.70
2019-03-16T23:32:36.049Z,6.60
2019-03-16T23:35:05.495Z,7.50
2019-03-16T23:37:33.907Z,6.97
2019-03-16T23:40:02.325Z,6.90
2019-03-16T23:42:30.730Z,7.10
2019-03-16T23:44:59.139Z,7.83
2019-03-16T23:47:27.553Z,9.70
2019-03-16T23:49:55.963Z,8.13
2019-03-16T23:52:24.370Z,7.47
2019-03-16T23:54:52.765Z,8.40
2019-03-16T23:57:21.179Z,9.60
2019-03-16T23:59:49.573Z,8.93
